sensor_id;sensor_type;location;lat;lon;timestamp;P1;durP1;ratioP1;P2;durP2;ratioP2
20456;SDS011;10387;51.102;6.848;2023-11-22T00:00:47;28.03;;;17.43;;
20456;SDS011;10387;51.102;6.848;2023-11-22T00:03:13;27.00;;;16.47;;
20456;SDS011;10387;51.102;6.848;2023-11-22T00:05:41;27.73;;;18.00;;
20456;SDS011;10387;51.102;6.848;2023-11-22T00:08:07;28.67;;;18.37;;
20456;SDS011;10387;51.102;6.848;2023-11-22T00:10:33;26.17;;;16.50;;
20456;SDS011;10387;51.102;6.848;2023-11-22T00:12:59;30.13;;;18.50;;
20456;SDS011;10387;51.102;6.848;2023-11-22T00:15:25;26.23;;;17.77;;
20456;SDS011;10387;51.102;6.848;2023-11-22T00:17:52;25.10;;;17.37;;
20456;SDS011;10387;51.102;6.848;2023-11-22T00:20:18;26.63;;;17.10;;
20456;SDS011;10387;51.102;6.848;2023-11-22T00:22:46;26.77;;;16.17;;
20456;SDS011;10387;51.102;6.848;2023-11-22T00:25:12;28.10;;;17.70;;
20456;SDS011;10387;51.102;6.848;2023-11-22T00:27:38;22.20;;;15.33;;
20456;SDS011;10387;51.102;6.848;2023-11-22T00:30:05;24.40;;;16.97;;
20456;SDS011;10387;51.102;6.848;2023-11-22T00:32:31;24.87;;;16.23;;
20456;SDS011;10387;51.102;6.848;2023-11-22T00:34:57;25.67;;;15.60;;
20456;SDS011;10387;51.102;6.848;2023-11-22T00:37:23;25.00;;;15.87;;
20456;SDS011;10387;51.102;6.848;2023-11-22T00:39:49;23.23;;;15.70;;
20456;SDS011;10387;51.102;6.848;2023-11-22T00:42:16;22.90;;;15.30;;
20456;SDS011;10387;51.102;6.848;2023-11-22T00:44:46;23.07;;;15.33;;
20456;SDS011;10387;51.102;6.848;2023-11-22T00:47:13;20.30;;;14.30;;
20456;SDS011;10387;51.102;6.848;2023-11-22T00:49:41;20.17;;;14.47;;
20456;SDS011;10387;51.102;6.848;2023-11-22T00:52:07;22.37;;;15.43;;
20456;SDS011;10387;51.102;6.848;2023-11-22T00:54:34;23.23;;;14.73;;
20456;SDS011;10387;51.102;6.848;2023-11-22T00:57:00;21.57;;;13.87;;
20456;SDS011;10387;51.102;6.848;2023-11-22T00:59:26;22.73;;;15.40;;
20456;SDS011;10387;51.102;6.848;2023-11-22T01:01:52;21.90;;;13.87;;
20456;SDS011;10387;51.102;6.848;2023-11-22T01:04:18;20.50;;;13.60;;
20456;SDS011;10387;51.102;6.848;2023-11-22T01:06:47;19.23;;;14.30;;
20456;SDS011;10387;51.102;6.848;2023-11-22T01:09:13;20.13;;;13.90;;
20456;SDS011;10387;51.102;6.848;2023-11-22T01:11:39;21.67;;;15.20;;
20456;SDS011;10387;51.102;6.848;2023-11-22T01:14:05;20.53;;;14.03;;
20456;SDS011;10387;51.102;6.848;2023-11-22T01:16:32;20.67;;;14.60;;
20456;SDS011;10387;51.102;6.848;2023-11-22T01:18:59;20.93;;;13.60;;
20456;SDS011;10387;51.102;6.848;2023-11-22T01:21:26;19.43;;;13.27;;
20456;SDS011;10387;51.102;6.848;2023-11-22T01:23:52;18.70;;;13.47;;
20456;SDS011;10387;51.102;6.848;2023-11-22T01:26:18;21.17;;;13.60;;
20456;SDS011;10387;51.102;6.848;2023-11-22T01:28:44;19.60;;;13.10;;
20456;SDS011;10387;51.102;6.848;2023-11-22T01:31:12;19.07;;;13.10;;
20456;SDS011;10387;51.102;6.848;2023-11-22T01:33:38;22.67;;;13.43;;
20456;SDS011;10387;51.102;6.848;2023-11-22T01:36:05;19.83;;;13.00;;
20456;SDS011;10387;51.102;6.848;2023-11-22T01:38:31;19.63;;;13.00;;
20456;SDS011;10387;51.102;6.848;2023-11-22T01:40:58;21.43;;;13.60;;
20456;SDS011;10387;51.102;6.848;2023-11-22T01:43:26;20.37;;;13.33;;
20456;SDS011;10387;51.102;6.848;2023-11-22T01:45:53;19.57;;;13.87;;
20456;SDS011;10387;51.102;6.848;2023-11-22T01:48:20;20.77;;;13.50;;
20456;SDS011;10387;51.102;6.848;2023-11-22T01:50:46;19.17;;;13.23;;
20456;SDS011;10387;51.102;6.848;2023-11-22T01:53:13;18.27;;;12.60;;
20456;SDS011;10387;51.102;6.848;2023-11-22T01:55:41;19.67;;;13.17;;
20456;SDS011;10387;51.102;6.848;2023-11-22T01:58:08;16.97;;;11.80;;
20456;SDS011;10387;51.102;6.848;2023-11-22T02:00:45;18.03;;;11.77;;
20456;SDS011;10387;51.102;6.848;2023-11-22T02:03:14;19.97;;;12.20;;
20456;SDS011;10387;51.102;6.848;2023-11-22T02:05:41;19.97;;;12.27;;
20456;SDS011;10387;51.102;6.848;2023-11-22T02:08:11;18.63;;;12.83;;
20456;SDS011;10387;51.102;6.848;2023-11-22T02:10:38;18.50;;;12.13;;
20456;SDS011;10387;51.102;6.848;2023-11-22T02:13:07;17.03;;;11.57;;
20456;SDS011;10387;51.102;6.848;2023-11-22T02:15:34;19.33;;;13.07;;
20456;SDS011;10387;51.102;6.848;2023-11-22T02:18:01;21.60;;;13.67;;
20456;SDS011;10387;51.102;6.848;2023-11-22T02:20:28;22.10;;;13.90;;
20456;SDS011;10387;51.102;6.848;2023-11-22T02:22:54;19.77;;;13.00;;
20456;SDS011;10387;51.102;6.848;2023-11-22T02:25:21;20.80;;;13.50;;
20456;SDS011;10387;51.102;6.848;2023-11-22T02:27:47;21.30;;;14.27;;
20456;SDS011;10387;51.102;6.848;2023-11-22T02:30:13;22.07;;;12.73;;
20456;SDS011;10387;51.102;6.848;2023-11-22T02:32:40;20.17;;;12.73;;
20456;SDS011;10387;51.102;6.848;2023-11-22T02:35:07;20.80;;;12.47;;
20456;SDS011;10387;51.102;6.848;2023-11-22T02:37:33;18.03;;;12.57;;
20456;SDS011;10387;51.102;6.848;2023-11-22T02:42:26;19.27;;;12.67;;
20456;SDS011;10387;51.102;6.848;2023-11-22T02:44:52;20.40;;;13.97;;
20456;SDS011;10387;51.102;6.848;2023-11-22T02:47:18;19.80;;;13.50;;
20456;SDS011;10387;51.102;6.848;2023-11-22T02:49:45;19.23;;;13.47;;
20456;SDS011;10387;51.102;6.848;2023-11-22T02:52:11;21.57;;;13.57;;
20456;SDS011;10387;51.102;6.848;2023-11-22T02:54:40;20.93;;;13.60;;
20456;SDS011;10387;51.102;6.848;2023-11-22T02:57:06;21.40;;;13.07;;
20456;SDS011;10387;51.102;6.848;2023-11-22T02:59:32;21.83;;;13.80;;
20456;SDS011;10387;51.102;6.848;2023-11-22T03:01:59;22.50;;;13.80;;
20456;SDS011;10387;51.102;6.848;2023-11-22T03:04:26;23.40;;;13.53;;
20456;SDS011;10387;51.102;6.848;2023-11-22T03:06:53;21.63;;;13.70;;
20456;SDS011;10387;51.102;6.848;2023-11-22T03:09:20;23.17;;;14.40;;
20456;SDS011;10387;51.102;6.848;2023-11-22T03:11:48;24.47;;;14.20;;
20456;SDS011;10387;51.102;6.848;2023-11-22T03:14:14;24.47;;;14.63;;
20456;SDS011;10387;51.102;6.848;2023-11-22T03:16:41;25.53;;;14.77;;
20456;SDS011;10387;51.102;6.848;2023-11-22T03:19:07;23.40;;;13.83;;
20456;SDS011;10387;51.102;6.848;2023-11-22T03:21:34;26.00;;;14.90;;
20456;SDS011;10387;51.102;6.848;2023-11-22T03:24:01;26.20;;;15.03;;
20456;SDS011;10387;51.102;6.848;2023-11-22T03:26:29;24.60;;;15.50;;
20456;SDS011;10387;51.102;6.848;2023-11-22T03:28:55;27.90;;;15.87;;
20456;SDS011;10387;51.102;6.848;2023-11-22T03:31:21;26.30;;;15.57;;
20456;SDS011;10387;51.102;6.848;2023-11-22T03:33:47;32.37;;;16.17;;
20456;SDS011;10387;51.102;6.848;2023-11-22T03:36:13;27.03;;;15.57;;
20456;SDS011;10387;51.102;6.848;2023-11-22T03:38:40;23.23;;;15.27;;
20456;SDS011;10387;51.102;6.848;2023-11-22T03:41:06;28.27;;;15.50;;
20456;SDS011;10387;51.102;6.848;2023-11-22T03:43:32;27.57;;;15.53;;
20456;SDS011;10387;51.102;6.848;2023-11-22T03:45:58;24.87;;;15.50;;
20456;SDS011;10387;51.102;6.848;2023-11-22T03:48:24;26.17;;;15.40;;
20456;SDS011;10387;51.102;6.848;2023-11-22T03:50:52;28.67;;;16.37;;
20456;SDS011;10387;51.102;6.848;2023-11-22T03:53:18;27.30;;;15.80;;
20456;SDS011;10387;51.102;6.848;2023-11-22T03:55:46;24.00;;;14.67;;
20456;SDS011;10387;51.102;6.848;2023-11-22T03:58:14;25.57;;;14.97;;
20456;SDS011;10387;51.102;6.848;2023-11-22T04:00:40;25.43;;;14.73;;
20456;SDS011;10387;51.102;6.848;2023-11-22T04:03:06;25.60;;;14.83;;
20456;SDS011;10387;51.102;6.848;2023-11-22T04:05:33;26.33;;;15.73;;
20456;SDS011;10387;51.102;6.848;2023-11-22T04:07:59;29.07;;;16.30;;
20456;SDS011;10387;51.102;6.848;2023-11-22T04:10:25;26.10;;;15.43;;
20456;SDS011;10387;51.102;6.848;2023-11-22T04:12:51;26.57;;;16.57;;
20456;SDS011;10387;51.102;6.848;2023-11-22T04:15:17;26.63;;;15.87;;
20456;SDS011;10387;51.102;6.848;2023-11-22T04:17:43;26.50;;;14.57;;
20456;SDS011;10387;51.102;6.848;2023-11-22T04:20:10;26.70;;;15.70;;
20456;SDS011;10387;51.102;6.848;2023-11-22T04:22:40;29.33;;;17.03;;
20456;SDS011;10387;51.102;6.848;2023-11-22T04:25:07;27.73;;;17.17;;
20456;SDS011;10387;51.102;6.848;2023-11-22T04:27:33;27.73;;;16.53;;
20456;SDS011;10387;51.102;6.848;2023-11-22T04:30:01;27.00;;;16.20;;
20456;SDS011;10387;51.102;6.848;2023-11-22T04:32:27;32.67;;;17.10;;
20456;SDS011;10387;51.102;6.848;2023-11-22T04:34:53;30.37;;;16.83;;
20456;SDS011;10387;51.102;6.848;2023-11-22T04:37:20;32.53;;;17.57;;
20456;SDS011;10387;51.102;6.848;2023-11-22T04:39:50;33.90;;;18.23;;
20456;SDS011;10387;51.102;6.848;2023-11-22T04:42:17;30.80;;;17.93;;
20456;SDS011;10387;51.102;6.848;2023-11-22T04:44:43;32.27;;;18.07;;
20456;SDS011;10387;51.102;6.848;2023-11-22T04:47:11;31.33;;;17.33;;
20456;SDS011;10387;51.102;6.848;2023-11-22T04:49:37;32.63;;;16.90;;
20456;SDS011;10387;51.102;6.848;2023-11-22T04:52:03;27.30;;;16.57;;
20456;SDS011;10387;51.102;6.848;2023-11-22T04:54:29;28.80;;;16.80;;
20456;SDS011;10387;51.102;6.848;2023-11-22T04:56:57;27.97;;;16.90;;
20456;SDS011;10387;51.102;6.848;2023-11-22T04:59:23;27.63;;;17.00;;
20456;SDS011;10387;51.102;6.848;2023-11-22T05:01:49;27.50;;;16.10;;
20456;SDS011;10387;51.102;6.848;2023-11-22T05:04:15;30.53;;;16.90;;
20456;SDS011;10387;51.102;6.848;2023-11-22T05:06:41;26.00;;;16.03;;
20456;SDS011;10387;51.102;6.848;2023-11-22T05:09:09;27.30;;;16.37;;
20456;SDS011;10387;51.102;6.848;2023-11-22T05:11:36;26.10;;;16.30;;
20456;SDS011;10387;51.102;6.848;2023-11-22T05:14:02;28.00;;;16.30;;
20456;SDS011;10387;51.102;6.848;2023-11-22T05:16:29;26.43;;;15.37;;
20456;SDS011;10387;51.102;6.848;2023-11-22T05:18:55;27.30;;;16.27;;
20456;SDS011;10387;51.102;6.848;2023-11-22T05:21:22;32.33;;;17.77;;
20456;SDS011;10387;51.102;6.848;2023-11-22T05:23:48;29.40;;;16.07;;
20456;SDS011;10387;51.102;6.848;2023-11-22T05:26:14;28.97;;;16.30;;
20456;SDS011;10387;51.102;6.848;2023-11-22T05:28:41;28.93;;;16.77;;
20456;SDS011;10387;51.102;6.848;2023-11-22T05:31:07;25.93;;;15.83;;
20456;SDS011;10387;51.102;6.848;2023-11-22T05:33:33;28.17;;;16.40;;
20456;SDS011;10387;51.102;6.848;2023-11-22T05:35:59;30.33;;;18.03;;
20456;SDS011;10387;51.102;6.848;2023-11-22T05:38:25;26.73;;;16.23;;
20456;SDS011;10387;51.102;6.848;2023-11-22T05:40:52;26.90;;;17.33;;
20456;SDS011;10387;51.102;6.848;2023-11-22T05:43:18;29.43;;;17.53;;
20456;SDS011;10387;51.102;6.848;2023-11-22T05:45:50;30.17;;;17.47;;
20456;SDS011;10387;51.102;6.848;2023-11-22T05:48:17;29.80;;;17.30;;
20456;SDS011;10387;51.102;6.848;2023-11-22T05:50:44;28.00;;;17.43;;
20456;SDS011;10387;51.102;6.848;2023-11-22T05:53:10;28.40;;;18.07;;
20456;SDS011;10387;51.102;6.848;2023-11-22T05:55:36;29.37;;;16.97;;
20456;SDS011;10387;51.102;6.848;2023-11-22T05:58:03;26.43;;;15.53;;
20456;SDS011;10387;51.102;6.848;2023-11-22T06:00:29;25.00;;;16.80;;
20456;SDS011;10387;51.102;6.848;2023-11-22T06:02:55;29.60;;;17.17;;
20456;SDS011;10387;51.102;6.848;2023-11-22T06:05:22;29.07;;;17.93;;
20456;SDS011;10387;51.102;6.848;2023-11-22T06:07:48;46.37;;;26.27;;
20456;SDS011;10387;51.102;6.848;2023-11-22T06:10:14;49.63;;;27.03;;
20456;SDS011;10387;51.102;6.848;2023-11-22T06:12:41;36.83;;;20.27;;
20456;SDS011;10387;51.102;6.848;2023-11-22T06:15:07;39.60;;;21.87;;
20456;SDS011;10387;51.102;6.848;2023-11-22T06:17:33;34.33;;;20.40;;
20456;SDS011;10387;51.102;6.848;2023-11-22T06:20:00;32.77;;;19.13;;
20456;SDS011;10387;51.102;6.848;2023-11-22T06:22:28;32.47;;;19.17;;
20456;SDS011;10387;51.102;6.848;2023-11-22T06:24:55;33.83;;;19.43;;
20456;SDS011;10387;51.102;6.848;2023-11-22T06:27:21;29.10;;;18.23;;
20456;SDS011;10387;51.102;6.848;2023-11-22T06:29:47;29.97;;;17.90;;
20456;SDS011;10387;51.102;6.848;2023-11-22T06:32:13;30.23;;;18.60;;
20456;SDS011;10387;51.102;6.848;2023-11-22T06:34:39;29.60;;;17.67;;
20456;SDS011;10387;51.102;6.848;2023-11-22T06:37:05;27.27;;;17.30;;
20456;SDS011;10387;51.102;6.848;2023-11-22T06:39:33;28.60;;;16.97;;
20456;SDS011;10387;51.102;6.848;2023-11-22T06:42:00;27.20;;;15.87;;
20456;SDS011;10387;51.102;6.848;2023-11-22T06:44:27;26.70;;;16.50;;
20456;SDS011;10387;51.102;6.848;2023-11-22T06:46:53;26.47;;;15.97;;
20456;SDS011;10387;51.102;6.848;2023-11-22T06:49:19;29.53;;;17.60;;
20456;SDS011;10387;51.102;6.848;2023-11-22T06:51:45;28.20;;;16.93;;
20456;SDS011;10387;51.102;6.848;2023-11-22T06:54:12;26.97;;;17.23;;
20456;SDS011;10387;51.102;6.848;2023-11-22T06:56:38;33.60;;;19.10;;
20456;SDS011;10387;51.102;6.848;2023-11-22T06:59:04;29.40;;;17.47;;
20456;SDS011;10387;51.102;6.848;2023-11-22T07:01:30;28.37;;;16.20;;
20456;SDS011;10387;51.102;6.848;2023-11-22T07:03:56;25.90;;;15.87;;
20456;SDS011;10387;51.102;6.848;2023-11-22T07:06:24;26.03;;;16.13;;
20456;SDS011;10387;51.102;6.848;2023-11-22T07:08:51;24.57;;;15.13;;
20456;SDS011;10387;51.102;6.848;2023-11-22T07:11:23;26.07;;;15.47;;
20456;SDS011;10387;51.102;6.848;2023-11-22T07:13:51;26.07;;;14.87;;
20456;SDS011;10387;51.102;6.848;2023-11-22T07:16:18;24.63;;;15.27;;
20456;SDS011;10387;51.102;6.848;2023-11-22T07:18:45;26.57;;;16.30;;
20456;SDS011;10387;51.102;6.848;2023-11-22T07:21:11;26.10;;;15.47;;
20456;SDS011;10387;51.102;6.848;2023-11-22T07:23:37;26.47;;;15.77;;
20456;SDS011;10387;51.102;6.848;2023-11-22T07:26:03;23.57;;;14.80;;
20456;SDS011;10387;51.102;6.848;2023-11-22T07:28:31;24.53;;;15.30;;
20456;SDS011;10387;51.102;6.848;2023-11-22T07:30:57;22.93;;;15.30;;
20456;SDS011;10387;51.102;6.848;2023-11-22T07:33:25;25.50;;;15.10;;
20456;SDS011;10387;51.102;6.848;2023-11-22T07:35:51;27.90;;;16.43;;
20456;SDS011;10387;51.102;6.848;2023-11-22T07:38:18;23.40;;;14.73;;
20456;SDS011;10387;51.102;6.848;2023-11-22T07:40:45;26.43;;;15.43;;
20456;SDS011;10387;51.102;6.848;2023-11-22T07:43:16;25.37;;;15.40;;
20456;SDS011;10387;51.102;6.848;2023-11-22T07:45:49;23.47;;;15.13;;
20456;SDS011;10387;51.102;6.848;2023-11-22T07:48:16;24.80;;;15.70;;
20456;SDS011;10387;51.102;6.848;2023-11-22T07:50:43;25.50;;;15.03;;
20456;SDS011;10387;51.102;6.848;2023-11-22T07:53:10;22.70;;;15.17;;
20456;SDS011;10387;51.102;6.848;2023-11-22T07:55:39;21.47;;;14.27;;
20456;SDS011;10387;51.102;6.848;2023-11-22T07:58:07;23.73;;;14.37;;
20456;SDS011;10387;51.102;6.848;2023-11-22T08:00:34;26.57;;;15.13;;
20456;SDS011;10387;51.102;6.848;2023-11-22T08:03:00;22.90;;;15.17;;
20456;SDS011;10387;51.102;6.848;2023-11-22T08:05:28;20.67;;;13.67;;
20456;SDS011;10387;51.102;6.848;2023-11-22T08:08:00;21.13;;;14.57;;
20456;SDS011;10387;51.102;6.848;2023-11-22T08:10:26;21.23;;;14.97;;
20456;SDS011;10387;51.102;6.848;2023-11-22T08:12:53;23.37;;;14.70;;
20456;SDS011;10387;51.102;6.848;2023-11-22T08:15:19;23.33;;;14.73;;
20456;SDS011;10387;51.102;6.848;2023-11-22T08:17:45;22.30;;;14.30;;
20456;SDS011;10387;51.102;6.848;2023-11-22T08:20:11;21.37;;;14.27;;
20456;SDS011;10387;51.102;6.848;2023-11-22T08:22:40;20.30;;;14.40;;
20456;SDS011;10387;51.102;6.848;2023-11-22T08:25:07;23.20;;;14.23;;
20456;SDS011;10387;51.102;6.848;2023-11-22T08:27:33;25.37;;;16.23;;
20456;SDS011;10387;51.102;6.848;2023-11-22T08:30:00;23.83;;;16.03;;
20456;SDS011;10387;51.102;6.848;2023-11-22T08:32:32;25.00;;;14.90;;
20456;SDS011;10387;51.102;6.848;2023-11-22T08:34:58;21.93;;;14.23;;
20456;SDS011;10387;51.102;6.848;2023-11-22T08:37:24;18.70;;;13.10;;
20456;SDS011;10387;51.102;6.848;2023-11-22T08:42:23;20.50;;;13.63;;
20456;SDS011;10387;51.102;6.848;2023-11-22T08:44:49;19.63;;;13.17;;
20456;SDS011;10387;51.102;6.848;2023-11-22T08:47:17;17.73;;;12.50;;
20456;SDS011;10387;51.102;6.848;2023-11-22T08:49:43;22.43;;;13.90;;
20456;SDS011;10387;51.102;6.848;2023-11-22T08:52:09;20.03;;;13.60;;
20456;SDS011;10387;51.102;6.848;2023-11-22T08:54:38;23.17;;;14.63;;
20456;SDS011;10387;51.102;6.848;2023-11-22T08:57:04;21.63;;;13.93;;
20456;SDS011;10387;51.102;6.848;2023-11-22T08:59:31;22.63;;;14.60;;
20456;SDS011;10387;51.102;6.848;2023-11-22T09:02:03;21.87;;;13.80;;
20456;SDS011;10387;51.102;6.848;2023-11-22T09:04:29;19.87;;;13.57;;
20456;SDS011;10387;51.102;6.848;2023-11-22T09:06:58;22.83;;;15.00;;
20456;SDS011;10387;51.102;6.848;2023-11-22T09:09:26;22.40;;;13.97;;
20456;SDS011;10387;51.102;6.848;2023-11-22T09:11:59;17.70;;;12.40;;
20456;SDS011;10387;51.102;6.848;2023-11-22T09:14:25;17.67;;;11.80;;
20456;SDS011;10387;51.102;6.848;2023-11-22T09:16:51;17.10;;;12.00;;
20456;SDS011;10387;51.102;6.848;2023-11-22T09:19:22;15.03;;;10.37;;
20456;SDS011;10387;51.102;6.848;2023-11-22T09:21:49;14.57;;;10.40;;
20456;SDS011;10387;51.102;6.848;2023-11-22T09:24:15;14.27;;;9.67;;
20456;SDS011;10387;51.102;6.848;2023-11-22T09:26:41;13.10;;;8.93;;
20456;SDS011;10387;51.102;6.848;2023-11-22T09:29:10;11.17;;;8.97;;
20456;SDS011;10387;51.102;6.848;2023-11-22T09:31:39;10.13;;;8.50;;
20456;SDS011;10387;51.102;6.848;2023-11-22T09:34:11;12.20;;;8.27;;
20456;SDS011;10387;51.102;6.848;2023-11-22T09:36:39;12.77;;;8.60;;
20456;SDS011;10387;51.102;6.848;2023-11-22T09:39:05;8.80;;;6.70;;
20456;SDS011;10387;51.102;6.848;2023-11-22T09:41:36;9.23;;;6.67;;
20456;SDS011;10387;51.102;6.848;2023-11-22T09:44:03;8.57;;;6.40;;
20456;SDS011;10387;51.102;6.848;2023-11-22T09:46:30;9.13;;;7.27;;
20456;SDS011;10387;51.102;6.848;2023-11-22T09:48:59;9.57;;;6.70;;
20456;SDS011;10387;51.102;6.848;2023-11-22T09:51:28;7.30;;;6.10;;
20456;SDS011;10387;51.102;6.848;2023-11-22T09:53:58;8.83;;;6.10;;
20456;SDS011;10387;51.102;6.848;2023-11-22T09:56:26;9.00;;;6.53;;
20456;SDS011;10387;51.102;6.848;2023-11-22T09:58:55;8.97;;;6.47;;
20456;SDS011;10387;51.102;6.848;2023-11-22T10:01:27;7.63;;;5.93;;
20456;SDS011;10387;51.102;6.848;2023-11-22T10:03:55;5.63;;;4.80;;
20456;SDS011;10387;51.102;6.848;2023-11-22T10:06:22;6.93;;;5.17;;
20456;SDS011;10387;51.102;6.848;2023-11-22T10:08:49;7.50;;;5.43;;
20456;SDS011;10387;51.102;6.848;2023-11-22T10:11:18;8.03;;;5.30;;
20456;SDS011;10387;51.102;6.848;2023-11-22T10:13:50;5.90;;;4.90;;
20456;SDS011;10387;51.102;6.848;2023-11-22T10:16:17;5.83;;;4.70;;
20456;SDS011;10387;51.102;6.848;2023-11-22T10:18:45;6.07;;;4.57;;
20456;SDS011;10387;51.102;6.848;2023-11-22T10:21:22;6.67;;;5.00;;
20456;SDS011;10387;51.102;6.848;2023-11-22T10:23:50;9.33;;;5.07;;
20456;SDS011;10387;51.102;6.848;2023-11-22T10:26:19;4.73;;;4.07;;
20456;SDS011;10387;51.102;6.848;2023-11-22T10:28:47;6.07;;;4.10;;
20456;SDS011;10387;51.102;6.848;2023-11-22T10:31:16;4.60;;;4.00;;
20456;SDS011;10387;51.102;6.848;2023-11-22T10:33:42;5.27;;;3.73;;
20456;SDS011;10387;51.102;6.848;2023-11-22T10:36:09;5.33;;;4.60;;
20456;SDS011;10387;51.102;6.848;2023-11-22T10:38:35;7.13;;;4.90;;
20456;SDS011;10387;51.102;6.848;2023-11-22T10:41:04;5.90;;;4.23;;
20456;SDS011;10387;51.102;6.848;2023-11-22T10:43:36;4.60;;;3.77;;
20456;SDS011;10387;51.102;6.848;2023-11-22T10:46:05;5.27;;;4.63;;
20456;SDS011;10387;51.102;6.848;2023-11-22T10:48:31;7.27;;;5.17;;
20456;SDS011;10387;51.102;6.848;2023-11-22T10:51:02;7.57;;;4.70;;
20456;SDS011;10387;51.102;6.848;2023-11-22T10:53:33;6.80;;;4.53;;
20456;SDS011;10387;51.102;6.848;2023-11-22T10:56:12;13.03;;;4.90;;
20456;SDS011;10387;51.102;6.848;2023-11-22T10:58:42;5.60;;;4.80;;
20456;SDS011;10387;51.102;6.848;2023-11-22T11:01:12;6.90;;;4.60;;
20456;SDS011;10387;51.102;6.848;2023-11-22T11:03:40;5.80;;;4.60;;
20456;SDS011;10387;51.102;6.848;2023-11-22T11:06:08;5.77;;;4.10;;
20456;SDS011;10387;51.102;6.848;2023-11-22T11:08:38;6.87;;;4.67;;
20456;SDS011;10387;51.102;6.848;2023-11-22T11:11:04;4.37;;;3.43;;
20456;SDS011;10387;51.102;6.848;2023-11-22T11:13:32;5.07;;;4.50;;
20456;SDS011;10387;51.102;6.848;2023-11-22T11:16:01;4.27;;;3.07;;
20456;SDS011;10387;51.102;6.848;2023-11-22T11:18:30;4.90;;;3.13;;
20456;SDS011;10387;51.102;6.848;2023-11-22T11:20:58;4.23;;;2.83;;
20456;SDS011;10387;51.102;6.848;2023-11-22T11:23:27;4.00;;;3.60;;
20456;SDS011;10387;51.102;6.848;2023-11-22T11:25:58;4.53;;;3.43;;
20456;SDS011;10387;51.102;6.848;2023-11-22T11:28:30;7.30;;;4.40;;
20456;SDS011;10387;51.102;6.848;2023-11-22T11:31:07;6.27;;;4.10;;
20456;SDS011;10387;51.102;6.848;2023-11-22T11:33:36;6.43;;;3.60;;
20456;SDS011;10387;51.102;6.848;2023-11-22T11:36:23;4.87;;;3.57;;
20456;SDS011;10387;51.102;6.848;2023-11-22T11:38:50;4.33;;;3.60;;
20456;SDS011;10387;51.102;6.848;2023-11-22T11:41:17;5.73;;;3.40;;
20456;SDS011;10387;51.102;6.848;2023-11-22T11:43:44;3.93;;;3.50;;
20456;SDS011;10387;51.102;6.848;2023-11-22T11:46:11;5.10;;;3.17;;
20456;SDS011;10387;51.102;6.848;2023-11-22T11:48:37;5.27;;;3.00;;
20456;SDS011;10387;51.102;6.848;2023-11-22T11:51:03;6.27;;;3.70;;
20456;SDS011;10387;51.102;6.848;2023-11-22T11:53:35;5.10;;;3.93;;
20456;SDS011;10387;51.102;6.848;2023-11-22T11:56:01;4.87;;;3.53;;
20456;SDS011;10387;51.102;6.848;2023-11-22T11:58:30;4.63;;;3.40;;
20456;SDS011;10387;51.102;6.848;2023-11-22T12:00:57;4.40;;;3.27;;
20456;SDS011;10387;51.102;6.848;2023-11-22T12:03:23;5.10;;;2.93;;
20456;SDS011;10387;51.102;6.848;2023-11-22T12:05:51;5.17;;;3.37;;
20456;SDS011;10387;51.102;6.848;2023-11-22T12:08:17;4.13;;;3.70;;
20456;SDS011;10387;51.102;6.848;2023-11-22T12:10:45;5.70;;;3.50;;
20456;SDS011;10387;51.102;6.848;2023-11-22T12:13:18;5.03;;;3.43;;
20456;SDS011;10387;51.102;6.848;2023-11-22T12:15:46;4.83;;;3.73;;
20456;SDS011;10387;51.102;6.848;2023-11-22T12:18:13;5.53;;;3.70;;
20456;SDS011;10387;51.102;6.848;2023-11-22T12:20:39;3.43;;;2.90;;
20456;SDS011;10387;51.102;6.848;2023-11-22T12:23:07;6.20;;;3.50;;
20456;SDS011;10387;51.102;6.848;2023-11-22T12:25:33;5.20;;;3.50;;
20456;SDS011;10387;51.102;6.848;2023-11-22T12:28:00;3.73;;;3.30;;
20456;SDS011;10387;51.102;6.848;2023-11-22T12:30:35;6.30;;;2.63;;
20456;SDS011;10387;51.102;6.848;2023-11-22T12:33:07;4.47;;;3.27;;
20456;SDS011;10387;51.102;6.848;2023-11-22T12:35:34;3.80;;;3.23;;
20456;SDS011;10387;51.102;6.848;2023-11-22T12:38:00;3.87;;;3.37;;
20456;SDS011;10387;51.102;6.848;2023-11-22T12:40:27;4.07;;;3.20;;
20456;SDS011;10387;51.102;6.848;2023-11-22T12:42:57;5.63;;;3.37;;
20456;SDS011;10387;51.102;6.848;2023-11-22T12:45:24;4.63;;;3.00;;
20456;SDS011;10387;51.102;6.848;2023-11-22T12:47:53;4.37;;;3.07;;
20456;SDS011;10387;51.102;6.848;2023-11-22T12:50:29;3.67;;;2.93;;
20456;SDS011;10387;51.102;6.848;2023-11-22T12:52:56;3.30;;;2.87;;
20456;SDS011;10387;51.102;6.848;2023-11-22T12:55:23;3.47;;;3.03;;
20456;SDS011;10387;51.102;6.848;2023-11-22T12:57:58;3.77;;;3.20;;
20456;SDS011;10387;51.102;6.848;2023-11-22T13:00:26;4.47;;;2.93;;
20456;SDS011;10387;51.102;6.848;2023-11-22T13:02:54;3.90;;;2.90;;
20456;SDS011;10387;51.102;6.848;2023-11-22T13:05:21;4.30;;;2.90;;
20456;SDS011;10387;51.102;6.848;2023-11-22T13:08:22;3.83;;;3.47;;
20456;SDS011;10387;51.102;6.848;2023-11-22T13:10:51;3.67;;;3.20;;
20456;SDS011;10387;51.102;6.848;2023-11-22T13:13:21;4.17;;;3.10;;
20456;SDS011;10387;51.102;6.848;2023-11-22T13:15:48;2.57;;;2.37;;
20456;SDS011;10387;51.102;6.848;2023-11-22T13:18:17;4.33;;;3.57;;
20456;SDS011;10387;51.102;6.848;2023-11-22T13:20:43;4.50;;;3.93;;
20456;SDS011;10387;51.102;6.848;2023-11-22T13:23:10;3.97;;;3.40;;
20456;SDS011;10387;51.102;6.848;2023-11-22T13:25:37;3.27;;;2.67;;
20456;SDS011;10387;51.102;6.848;2023-11-22T13:28:03;5.30;;;3.43;;
20456;SDS011;10387;51.102;6.848;2023-11-22T13:30:31;3.60;;;3.07;;
20456;SDS011;10387;51.102;6.848;2023-11-22T13:32:58;4.63;;;3.43;;
20456;SDS011;10387;51.102;6.848;2023-11-22T13:35:24;4.53;;;3.70;;
20456;SDS011;10387;51.102;6.848;2023-11-22T13:37:55;5.40;;;3.60;;
20456;SDS011;10387;51.102;6.848;2023-11-22T13:40:24;4.90;;;3.80;;
20456;SDS011;10387;51.102;6.848;2023-11-22T13:42:52;4.93;;;4.03;;
20456;SDS011;10387;51.102;6.848;2023-11-22T13:45:19;4.27;;;3.87;;
20456;SDS011;10387;51.102;6.848;2023-11-22T13:47:46;4.70;;;3.67;;
20456;SDS011;10387;51.102;6.848;2023-11-22T13:50:18;7.57;;;4.40;;
20456;SDS011;10387;51.102;6.848;2023-11-22T13:52:50;3.60;;;3.30;;
20456;SDS011;10387;51.102;6.848;2023-11-22T13:55:17;4.80;;;3.90;;
20456;SDS011;10387;51.102;6.848;2023-11-22T13:57:48;5.13;;;4.10;;
20456;SDS011;10387;51.102;6.848;2023-11-22T14:00:15;5.33;;;4.07;;
20456;SDS011;10387;51.102;6.848;2023-11-22T14:02:47;5.47;;;3.70;;
20456;SDS011;10387;51.102;6.848;2023-11-22T14:05:17;5.00;;;3.87;;
20456;SDS011;10387;51.102;6.848;2023-11-22T14:07:43;5.47;;;3.70;;
20456;SDS011;10387;51.102;6.848;2023-11-22T14:10:10;4.07;;;3.60;;
20456;SDS011;10387;51.102;6.848;2023-11-22T14:12:37;5.40;;;4.20;;
20456;SDS011;10387;51.102;6.848;2023-11-22T14:15:05;5.03;;;3.43;;
20456;SDS011;10387;51.102;6.848;2023-11-22T14:17:35;4.83;;;3.83;;
20456;SDS011;10387;51.102;6.848;2023-11-22T14:20:04;4.73;;;4.23;;
20456;SDS011;10387;51.102;6.848;2023-11-22T14:22:32;5.30;;;3.90;;
20456;SDS011;10387;51.102;6.848;2023-11-22T14:24:58;5.50;;;4.20;;
20456;SDS011;10387;51.102;6.848;2023-11-22T14:27:25;5.53;;;3.93;;
20456;SDS011;10387;51.102;6.848;2023-11-22T14:29:56;5.43;;;3.97;;
20456;SDS011;10387;51.102;6.848;2023-11-22T14:32:23;4.20;;;3.80;;
20456;SDS011;10387;51.102;6.848;2023-11-22T14:34:49;4.00;;;3.20;;
20456;SDS011;10387;51.102;6.848;2023-11-22T14:37:16;4.17;;;3.40;;